createdAt,value
2019-02-16T00:01:02.584Z,6.50
2019-02-16T00:03:51.131Z,7.73
2019-02-16T00:06:40.818Z,7.23
2019-02-16T00:09:28.921Z,7.20
2019-02-16T00:12:18.001Z,9.50
2019-02-16T00:15:06.398Z,7.60
2019-02-16T00:17:54.212Z,8.20
2019-02-16T00:20:42.501Z,8.03
2019-02-16T00:23:29.996Z,7.37
2019-02-16T00:26:18.048Z,10.27
2019-02-16T00:29:06.373Z,10.10
2019-02-16T00:31:56.110Z,9.67
2019-02-16T00:34:44.163Z,9.97
2019-02-16T00:37:32.294Z,8.70
2019-02-16T00:40:24.805Z,10.17
2019-02-16T00:43:17.656Z,8.40
2019-02-16T00:46:06.547Z,9.13
2019-02-16T00:48:54.833Z,11.40
2019-02-16T00:51:43.235Z,11.43
2019-02-16T00:54:30.935Z,11.57
2019-02-16T00:57:20.553Z,12.27
2019-02-16T01:00:09.493Z,12.77
2019-02-16T01:02:57.775Z,10.93
2019-02-16T01:05:51.973Z,10.73
2019-02-16T01:08:40.526Z,12.17
2019-02-16T01:11:31.316Z,11.03
2019-02-16T01:14:26.456Z,9.60
2019-02-16T01:17:17.657Z,10.90
2019-02-16T01:20:06.750Z,10.10
2019-02-16T01:22:54.724Z,12.13
2019-02-16T01:25:42.864Z,9.63
2019-02-16T01:28:33.415Z,9.87
2019-02-16T01:31:21.944Z,10.60
2019-02-16T01:34:10.327Z,13.90
2019-02-16T01:36:58.420Z,12.90
2019-02-16T01:39:47.041Z,12.37
2019-02-16T01:42:35.040Z,12.33
2019-02-16T01:45:23.445Z,12.83
2019-02-16T01:48:11.816Z,13.37
2019-02-16T01:51:01.746Z,11.43
2019-02-16T01:53:50.032Z,12.03
2019-02-16T01:56:39.317Z,11.33
2019-02-16T01:59:28.089Z,11.97
2019-02-16T02:02:18.501Z,12.43
2019-02-16T02:05:06.795Z,12.50
2019-02-16T02:07:56.540Z,12.40
2019-02-16T02:10:44.838Z,11.63
2019-02-16T02:13:33.493Z,12.27
2019-02-16T02:16:21.833Z,11.43
2019-02-16T02:19:10.586Z,11.17
2019-02-16T02:21:58.538Z,12.57
2019-02-16T02:24:46.644Z,12.60
2019-02-16T02:27:43.792Z,11.20
2019-02-16T02:30:32.141Z,12.10
2019-02-16T02:33:23.293Z,12.07
2019-02-16T02:36:11.730Z,11.77
2019-02-16T02:39:01.719Z,12.33
2019-02-16T02:41:50.503Z,11.77
2019-02-16T02:44:38.647Z,11.87
2019-02-16T02:47:27.608Z,12.20
2019-02-16T02:50:15.778Z,12.43
2019-02-16T02:53:03.908Z,12.87
2019-02-16T02:55:55.441Z,13.37
2019-02-16T02:58:45.189Z,12.33
2019-02-16T03:01:32.927Z,12.50
2019-02-16T03:04:24.047Z,12.53
2019-02-16T03:07:12.482Z,13.87
2019-02-16T03:10:00.713Z,12.43
2019-02-16T03:12:48.970Z,12.47
2019-02-16T03:15:39.664Z,12.63
2019-02-16T03:18:31.175Z,13.20
2019-02-16T03:21:19.497Z,12.67
2019-02-16T03:24:15.447Z,13.43
2019-02-16T03:27:21.918Z,12.70
2019-02-16T03:30:41.552Z,12.67
2019-02-16T03:34:01.638Z,12.63
2019-02-16T03:37:42.752Z,11.90
2019-02-16T03:40:31.073Z,12.40
2019-02-16T03:43:19.435Z,12.60
2019-02-16T03:46:07.766Z,12.87
2019-02-16T03:48:56.391Z,11.80
2019-02-16T03:51:45.877Z,11.40
2019-02-16T03:54:39.859Z,11.73
2019-02-16T03:57:27.376Z,12.17
2019-02-16T04:00:15.913Z,12.07
2019-02-16T04:03:05.354Z,11.17
2019-02-16T04:05:54.305Z,11.33
2019-02-16T04:08:42.614Z,11.67
2019-02-16T04:11:30.679Z,12.13
2019-02-16T04:14:19.962Z,11.70
2019-02-16T04:17:09.878Z,11.13
2019-02-16T04:20:02.647Z,11.73
2019-02-16T04:22:50.275Z,11.40
2019-02-16T04:25:38.608Z,12.03
2019-02-16T04:28:28.712Z,12.27
2019-02-16T04:31:16.538Z,11.97
2019-02-16T04:34:04.450Z,11.40
2019-02-16T04:36:53.188Z,12.67
2019-02-16T04:39:45.129Z,11.83
2019-02-16T04:42:41.878Z,11.83
2019-02-16T04:52:53.164Z,11.90
2019-02-16T05:01:51.532Z,11.23
2019-02-16T05:11:15.024Z,11.70
2019-02-16T05:14:05.280Z,11.43
2019-02-16T05:16:55.619Z,11.53
2019-02-16T05:19:44.109Z,10.87
2019-02-16T05:22:44.743Z,11.23
2019-02-16T05:29:42.374Z,10.83
2019-02-16T05:36:14.452Z,10.27
2019-02-16T05:39:04.223Z,10.57
2019-02-16T05:41:54.817Z,10.87
2019-02-16T05:44:43.707Z,10.23
2019-02-16T05:47:33.680Z,9.63
2019-02-16T05:50:22.646Z,9.53
2019-02-16T05:53:10.767Z,8.90
2019-02-16T05:55:58.389Z,9.57
2019-02-16T05:58:49.508Z,9.07
2019-02-16T06:01:37.640Z,9.10
2019-02-16T06:04:26.288Z,8.83
2019-02-16T06:07:14.517Z,9.83
2019-02-16T06:10:02.809Z,9.57
2019-02-16T06:12:51.189Z,8.60
2019-02-16T06:15:41.092Z,8.53
2019-02-16T06:18:29.283Z,8.90
2019-02-16T06:21:17.364Z,9.50
2019-02-16T06:24:05.235Z,9.47
2019-02-16T06:26:54.157Z,9.87
2019-02-16T06:29:43.170Z,9.90
2019-02-16T06:36:08.489Z,9.03
2019-02-16T06:38:56.542Z,10.47
2019-02-16T06:41:44.067Z,10.00
2019-02-16T06:44:33.867Z,9.70
2019-02-16T06:47:21.389Z,8.97
2019-02-16T06:50:10.232Z,9.27
2019-02-16T06:52:58.589Z,10.37
2019-02-16T06:56:05.560Z,9.50
2019-02-16T06:58:53.715Z,10.03
2019-02-16T07:01:44.452Z,10.60
2019-02-16T07:04:32.410Z,9.60
2019-02-16T07:07:20.880Z,9.43
2019-02-16T07:10:08.961Z,11.23
2019-02-16T07:12:59.086Z,10.07
2019-02-16T07:16:07.529Z,9.90
2019-02-16T07:19:01.094Z,9.07
2019-02-16T07:21:49.925Z,10.87
2019-02-16T07:24:38.365Z,10.97
2019-02-16T07:27:29.489Z,11.73
2019-02-16T07:30:18.062Z,9.70
2019-02-16T07:33:06.320Z,11.13
2019-02-16T07:35:54.756Z,10.17
2019-02-16T07:38:43.322Z,9.00
2019-02-16T07:41:31.897Z,10.10
2019-02-16T07:44:45.252Z,9.33
2019-02-16T07:47:44.281Z,9.53
2019-02-16T07:50:53.489Z,9.83
2019-02-16T07:53:47.809Z,8.83
2019-02-16T07:56:49.653Z,8.70
2019-02-16T07:59:56.895Z,9.20
2019-02-16T08:03:04.024Z,8.87
2019-02-16T08:06:17.057Z,10.70
2019-02-16T08:09:24.303Z,12.07
2019-02-16T08:12:27.510Z,9.47
2019-02-16T08:15:29.182Z,8.47
2019-02-16T08:18:30.167Z,9.53
2019-02-16T08:21:34.628Z,8.37
2019-02-16T08:24:41.430Z,9.20
2019-02-16T08:28:00.666Z,8.60
2019-02-16T08:31:10.459Z,8.53
2019-02-16T08:34:20.905Z,9.73
2019-02-16T08:37:30.675Z,7.70
2019-02-16T08:40:29.891Z,8.07
2019-02-16T08:43:43.166Z,8.63
2019-02-16T08:46:55.818Z,8.70
2019-02-16T08:50:10.306Z,9.80
2019-02-16T08:53:29.530Z,8.97
2019-02-16T08:56:47.220Z,8.93
2019-02-16T08:59:50.835Z,8.30
2019-02-16T09:03:01.450Z,10.10
2019-02-16T09:06:11.702Z,9.30
2019-02-16T09:09:29.368Z,9.80
2019-02-16T09:12:42.729Z,8.50
2019-02-16T09:15:57.329Z,9.27
2019-02-16T09:19:04.379Z,8.67
2019-02-16T09:22:13.477Z,9.03
2019-02-16T09:25:23.452Z,9.30
2019-02-16T09:28:30.351Z,10.03
2019-02-16T09:31:47.213Z,9.20
2019-02-16T09:34:47.036Z,10.67
2019-02-16T09:37:43.207Z,8.53
2019-02-16T09:40:59.386Z,8.90
2019-02-16T09:44:07.314Z,10.03
2019-02-16T09:47:19.931Z,11.80
2019-02-16T09:50:28.114Z,8.73
2019-02-16T09:53:27.561Z,9.13
2019-02-16T09:56:23.812Z,10.37
2019-02-16T09:59:29.256Z,10.37
2019-02-16T10:02:26.710Z,8.90
2019-02-16T10:05:37.698Z,10.90
2019-02-16T10:08:49.087Z,11.40
2019-02-16T10:11:42.054Z,9.87
2019-02-16T10:14:44.891Z,11.30
2019-02-16T10:17:51.469Z,10.17
2019-02-16T10:20:53.468Z,9.93
2019-02-16T10:24:00.001Z,9.10
2019-02-16T10:27:07.026Z,10.00
2019-02-16T10:29:59.564Z,10.37
2019-02-16T10:33:07.198Z,9.10
2019-02-16T10:36:17.191Z,9.33
2019-02-16T10:39:36.540Z,9.27
2019-02-16T10:42:44.109Z,11.70
2019-02-16T10:45:57.112Z,7.73
2019-02-16T10:49:04.047Z,8.83
2019-02-16T10:52:06.939Z,9.93
2019-02-16T10:55:06.329Z,9.67
2019-02-16T10:58:13.196Z,7.93
2019-02-16T11:01:21.123Z,9.17
2019-02-16T11:04:40.235Z,10.03
2019-02-16T11:07:42.920Z,9.80
2019-02-16T11:10:50.073Z,7.97
2019-02-16T11:14:09.792Z,8.27
2019-02-16T11:17:16.271Z,14.90
2019-02-16T11:20:23.336Z,8.13
2019-02-16T11:23:27.833Z,10.43
2019-02-16T11:26:29.704Z,9.23
2019-02-16T11:29:42.589Z,10.07
2019-02-16T11:32:41.324Z,10.97
2019-02-16T11:35:51.452Z,13.00
2019-02-16T11:38:58.621Z,12.83
2019-02-16T11:42:14.565Z,12.77
2019-02-16T11:45:19.606Z,11.53
2019-02-16T11:48:25.978Z,12.33
2019-02-16T11:51:32.964Z,12.33
2019-02-16T11:54:49.790Z,11.37
2019-02-16T11:58:08.596Z,12.67
2019-02-16T12:01:24.467Z,11.50
2019-02-16T12:04:31.006Z,12.20
2019-02-16T12:07:37.728Z,12.50
2019-02-16T12:10:47.545Z,12.63
2019-02-16T12:13:44.227Z,12.13
2019-02-16T12:16:41.026Z,12.60
2019-02-16T12:19:57.243Z,12.20
2019-02-16T12:22:51.449Z,11.50
2019-02-16T12:25:57.873Z,11.47
2019-02-16T12:29:03.684Z,11.53
2019-02-16T12:32:22.913Z,11.93
2019-02-16T12:35:35.716Z,10.70
2019-02-16T12:38:29.377Z,12.53
2019-02-16T12:41:34.169Z,11.40
2019-02-16T12:44:40.736Z,12.73
2019-02-16T12:48:06.881Z,14.00
2019-02-16T12:51:16.551Z,13.00
2019-02-16T12:54:26.711Z,12.77
2019-02-16T12:57:36.634Z,11.70
2019-02-16T13:00:49.433Z,12.07
2019-02-16T13:03:55.056Z,11.13
2019-02-16T13:07:04.786Z,14.20
2019-02-16T13:10:23.850Z,11.60
2019-02-16T13:13:36.852Z,10.43
2019-02-16T13:16:47.678Z,12.43
2019-02-16T13:20:11.233Z,10.70
2019-02-16T13:23:24.362Z,12.33
2019-02-16T13:26:24.186Z,12.57
2019-02-16T13:29:22.994Z,12.40
2019-02-16T13:32:30.151Z,12.27
2019-02-16T13:35:36.762Z,10.40
2019-02-16T13:38:37.767Z,12.43
2019-02-16T13:41:38.504Z,13.00
2019-02-16T13:44:38.758Z,12.50
2019-02-16T13:47:51.924Z,11.80
2019-02-16T13:51:04.566Z,15.40
2019-02-16T13:54:02.239Z,15.50
2019-02-16T13:57:21.157Z,13.17
2019-02-16T14:00:17.989Z,13.50
2019-02-16T14:03:34.271Z,16.77
2019-02-16T14:06:41.141Z,15.73
2019-02-16T14:09:54.477Z,13.87
2019-02-16T14:12:58.220Z,15.30
2019-02-16T14:16:03.857Z,15.23
2019-02-16T14:18:52.065Z,14.03
2019-02-16T14:21:39.769Z,15.23
2019-02-16T14:24:42.725Z,15.90
2019-02-16T14:27:30.533Z,17.80
2019-02-16T14:30:18.033Z,17.37
2019-02-16T14:33:06.028Z,14.87
2019-02-16T14:35:54.093Z,17.67
2019-02-16T14:38:51.105Z,19.10
2019-02-16T14:41:39.194Z,15.57
2019-02-16T14:44:27.369Z,16.27
2019-02-16T14:47:15.569Z,17.97
2019-02-16T14:50:03.678Z,22.33
2019-02-16T14:52:51.788Z,15.70
2019-02-16T14:55:40.087Z,16.10
2019-02-16T14:58:28.973Z,16.97
2019-02-16T15:01:17.013Z,17.27
2019-02-16T15:04:05.186Z,19.37
2019-02-16T15:06:53.855Z,17.20
2019-02-16T15:09:42.677Z,17.77
2019-02-16T15:12:30.844Z,20.07
2019-02-16T15:15:18.481Z,19.03
2019-02-16T15:18:06.437Z,17.10
2019-02-16T15:20:54.483Z,16.57
2019-02-16T15:23:42.209Z,17.90
2019-02-16T15:26:30.098Z,17.60
2019-02-16T15:29:18.361Z,15.47
2019-02-16T15:32:06.290Z,18.90
2019-02-16T15:34:54.258Z,19.10
2019-02-16T15:37:42.013Z,19.50
2019-02-16T15:40:29.874Z,19.17
2019-02-16T15:43:17.785Z,16.87
2019-02-16T15:46:05.733Z,18.67
2019-02-16T15:48:54.371Z,17.50
2019-02-16T15:51:42.308Z,21.50
2019-02-16T15:54:30.861Z,17.77
2019-02-16T15:57:18.572Z,5.33
2019-02-16T16:00:08.749Z,17.47
2019-02-16T16:02:57.243Z,13.77
2019-02-16T16:05:45.403Z,3.17
2019-02-16T16:08:43.019Z,10.60
2019-02-16T16:11:45.630Z,18.83
2019-02-16T16:14:51.344Z,17.27
2019-02-16T16:18:01.031Z,5.20
2019-02-16T16:21:13.407Z,14.57
2019-02-16T16:24:32.616Z,21.23
2019-02-16T16:27:49.628Z,19.43
2019-02-16T16:30:54.602Z,19.83
2019-02-16T16:34:05.201Z,17.80
2019-02-16T16:37:14.616Z,20.30
2019-02-16T16:40:23.945Z,20.37
2019-02-16T16:43:33.798Z,21.77
2019-02-16T16:46:52.928Z,22.33
2019-02-16T16:50:01.098Z,21.70
2019-02-16T16:53:00.654Z,23.00
2019-02-16T16:56:14.573Z,23.37
2019-02-16T16:59:30.389Z,24.20
2019-02-16T17:02:36.024Z,23.13
2019-02-16T17:05:48.773Z,22.80
2019-02-16T17:08:55.911Z,23.90
2019-02-16T17:12:03.103Z,22.87
2019-02-16T17:15:10.880Z,25.47
2019-02-16T17:18:13.898Z,19.97
2019-02-16T17:21:10.532Z,22.20
2019-02-16T17:24:17.347Z,23.90
2019-02-16T17:27:35.974Z,21.57
2019-02-16T17:30:58.707Z,21.80
2019-02-16T17:34:11.697Z,24.53
2019-02-16T17:37:24.741Z,22.07
2019-02-16T17:40:34.953Z,22.43
2019-02-16T17:43:45.183Z,22.67
2019-02-16T17:46:50.924Z,22.90
2019-02-16T17:50:16.262Z,24.73
2019-02-16T17:53:12.972Z,28.00
2019-02-16T17:56:10.670Z,21.00
2019-02-16T17:59:17.362Z,23.47
2019-02-16T18:02:16.333Z,22.50
2019-02-16T18:05:22.314Z,24.97
2019-02-16T18:08:28.095Z,23.27
2019-02-16T18:11:38.148Z,23.83
2019-02-16T18:14:37.448Z,23.73
2019-02-16T18:17:43.874Z,25.33
2019-02-16T18:20:47.379Z,24.27
2019-02-16T18:23:43.236Z,23.37
2019-02-16T18:26:56.538Z,23.67
2019-02-16T18:30:03.629Z,24.20
2019-02-16T18:33:17.071Z,24.13
2019-02-16T18:36:30.697Z,26.10
2019-02-16T18:39:37.395Z,27.73
2019-02-16T18:42:35.606Z,24.50
2019-02-16T18:45:34.986Z,24.57
2019-02-16T18:48:33.999Z,26.17
2019-02-16T18:51:29.832Z,23.23
2019-02-16T18:54:24.846Z,24.47
2019-02-16T18:57:38.405Z,23.20
2019-02-16T19:01:02.845Z,24.10
2019-02-16T19:04:10.667Z,27.30
2019-02-16T19:07:23.901Z,26.00
2019-02-16T19:10:37.838Z,25.57
2019-02-16T19:13:43.422Z,26.63
2019-02-16T19:16:52.204Z,23.10
2019-02-16T19:20:01.704Z,23.83
2019-02-16T19:23:00.480Z,27.60
2019-02-16T19:26:19.745Z,25.80
2019-02-16T19:29:23.711Z,25.50
2019-02-16T19:32:41.156Z,21.00
2019-02-16T19:35:54.753Z,27.03
2019-02-16T19:39:11.121Z,28.37
2019-02-16T19:42:11.314Z,25.77
2019-02-16T19:45:27.369Z,27.60
2019-02-16T19:48:30.818Z,25.03
2019-02-16T19:51:49.741Z,24.87
2019-02-16T19:54:59.713Z,25.83
2019-02-16T19:58:05.595Z,25.70
2019-02-16T20:01:11.681Z,26.60
2019-02-16T20:04:15.318Z,25.33
2019-02-16T20:07:34.462Z,25.50
2019-02-16T20:10:50.442Z,22.87
2019-02-16T20:14:01.385Z,25.37
2019-02-16T20:17:00.793Z,25.70
2019-02-16T20:20:13.959Z,22.20
2019-02-16T20:23:12.645Z,26.33
2019-02-16T20:26:17.413Z,25.23
2019-02-16T20:29:36.600Z,27.23
2019-02-16T20:32:49.592Z,24.93
2019-02-16T20:35:56.811Z,26.90
2019-02-16T20:39:08.527Z,25.23
2019-02-16T20:42:20.803Z,23.57
2019-02-16T20:45:45.623Z,20.83
2019-02-16T20:48:52.497Z,24.93
2019-02-16T20:51:54.022Z,24.57
2019-02-16T20:55:06.571Z,24.83
2019-02-16T20:58:02.314Z,21.23
2019-02-16T21:01:11.609Z,23.43
2019-02-16T21:04:09.081Z,25.47
2019-02-16T21:07:11.893Z,24.37
2019-02-16T21:10:39.671Z,26.70
2019-02-16T21:13:34.256Z,21.37
2019-02-16T21:16:41.405Z,28.17
2019-02-16T21:19:45.714Z,23.07
2019-02-16T21:22:46.457Z,22.20
2019-02-16T21:25:59.684Z,22.20
2019-02-16T21:29:09.452Z,23.57
2019-02-16T21:32:12.848Z,21.80
2019-02-16T21:35:06.413Z,20.43
2019-02-16T21:38:07.054Z,19.17
2019-02-16T21:41:44.693Z,19.10
2019-02-16T21:44:55.058Z,21.53
2019-02-16T21:48:05.533Z,18.60
2019-02-16T21:51:18.863Z,18.90
2019-02-16T21:58:08.328Z,23.00
2019-02-16T22:01:15.448Z,19.87
2019-02-16T22:08:03.095Z,21.93
2019-02-16T22:14:26.267Z,17.80
2019-02-16T22:17:16.286Z,21.07
2019-02-16T22:20:10.368Z,24.40
2019-02-16T22:26:08.765Z,22.37
2019-02-16T23:02:57.768Z,19.13
2019-02-16T23:12:58.355Z,20.80
2019-02-16T23:36:42.909Z,17.83
2019-02-16T23:50:40.221Z,18.40
2019-02-16T23:57:02.698Z,19.93
